sensor_id;sensor_type;location;lat;lon;timestamp;P1;durP1;ratioP1;P2;durP2;ratioP2
72904;SDS011;61048;52.162;4.516;2023-06-22T00:02:00;5.40;;;2.47;;
72904;SDS011;61048;52.162;4.516;2023-06-22T00:04:29;4.38;;;2.20;;
72904;SDS011;61048;52.162;4.516;2023-06-22T00:06:55;4.97;;;2.47;;
72904;SDS011;61048;52.162;4.516;2023-06-22T00:09:22;4.75;;;2.50;;
72904;SDS011;61048;52.162;4.516;2023-06-22T00:11:49;5.70;;;2.90;;
72904;SDS011;61048;52.162;4.516;2023-06-22T00:14:16;4.78;;;2.58;;
72904;SDS011;61048;52.162;4.516;2023-06-22T00:16:43;6.47;;;2.88;;
72904;SDS011;61048;52.162;4.516;2023-06-22T00:19:13;5.28;;;2.60;;
72904;SDS011;61048;52.162;4.516;2023-06-22T00:21:42;5.07;;;2.70;;
72904;SDS011;61048;52.162;4.516;2023-06-22T00:24:12;5.78;;;2.53;;
72904;SDS011;61048;52.162;4.516;2023-06-22T00:26:39;5.07;;;2.75;;
72904;SDS011;61048;52.162;4.516;2023-06-22T00:29:05;5.57;;;2.60;;
72904;SDS011;61048;52.162;4.516;2023-06-22T00:31:32;5.03;;;2.25;;
72904;SDS011;61048;52.162;4.516;2023-06-22T00:33:59;4.90;;;2.55;;
72904;SDS011;61048;52.162;4.516;2023-06-22T00:36:26;5.63;;;2.60;;
72904;SDS011;61048;52.162;4.516;2023-06-22T00:38:54;5.55;;;2.80;;
72904;SDS011;61048;52.162;4.516;2023-06-22T00:41:22;5.88;;;2.83;;
72904;SDS011;61048;52.162;4.516;2023-06-22T00:43:49;6.07;;;2.88;;
72904;SDS011;61048;52.162;4.516;2023-06-22T00:46:16;4.93;;;2.50;;
72904;SDS011;61048;52.162;4.516;2023-06-22T00:48:43;6.75;;;2.92;;
72904;SDS011;61048;52.162;4.516;2023-06-22T00:51:10;6.53;;;2.72;;
72904;SDS011;61048;52.162;4.516;2023-06-22T00:53:37;6.40;;;3.08;;
72904;SDS011;61048;52.162;4.516;2023-06-22T00:56:07;6.40;;;3.05;;
72904;SDS011;61048;52.162;4.516;2023-06-22T00:58:37;7.03;;;3.10;;
72904;SDS011;61048;52.162;4.516;2023-06-22T01:01:06;6.28;;;3.33;;
72904;SDS011;61048;52.162;4.516;2023-06-22T01:03:33;6.10;;;2.88;;
72904;SDS011;61048;52.162;4.516;2023-06-22T01:06:02;6.75;;;3.33;;
72904;SDS011;61048;52.162;4.516;2023-06-22T01:08:38;7.20;;;3.30;;
72904;SDS011;61048;52.162;4.516;2023-06-22T01:11:17;6.28;;;3.42;;
72904;SDS011;61048;52.162;4.516;2023-06-22T01:13:50;6.35;;;3.15;;
72904;SDS011;61048;52.162;4.516;2023-06-22T01:16:24;8.75;;;3.83;;
72904;SDS011;61048;52.162;4.516;2023-06-22T01:18:54;5.88;;;3.40;;
72904;SDS011;61048;52.162;4.516;2023-06-22T01:21:24;6.90;;;2.85;;
72904;SDS011;61048;52.162;4.516;2023-06-22T01:23:56;5.45;;;2.88;;
72904;SDS011;61048;52.162;4.516;2023-06-22T01:26:37;6.40;;;2.85;;
72904;SDS011;61048;52.162;4.516;2023-06-22T01:29:10;5.93;;;2.92;;
72904;SDS011;61048;52.162;4.516;2023-06-22T01:31:38;6.60;;;3.00;;
72904;SDS011;61048;52.162;4.516;2023-06-22T01:34:07;6.70;;;2.95;;
72904;SDS011;61048;52.162;4.516;2023-06-22T01:36:35;4.85;;;2.50;;
72904;SDS011;61048;52.162;4.516;2023-06-22T01:39:04;4.07;;;2.33;;
72904;SDS011;61048;52.162;4.516;2023-06-22T01:41:33;5.03;;;2.83;;
72904;SDS011;61048;52.162;4.516;2023-06-22T01:44:02;5.47;;;2.67;;
72904;SDS011;61048;52.162;4.516;2023-06-22T01:46:32;5.43;;;2.67;;
72904;SDS011;61048;52.162;4.516;2023-06-22T01:49:00;5.03;;;3.08;;
72904;SDS011;61048;52.162;4.516;2023-06-22T01:51:28;6.15;;;3.20;;
72904;SDS011;61048;52.162;4.516;2023-06-22T01:53:55;7.30;;;3.75;;
72904;SDS011;61048;52.162;4.516;2023-06-22T01:56:22;6.13;;;3.58;;
72904;SDS011;61048;52.162;4.516;2023-06-22T01:58:50;6.88;;;3.45;;
72904;SDS011;61048;52.162;4.516;2023-06-22T02:01:24;6.95;;;3.90;;
72904;SDS011;61048;52.162;4.516;2023-06-22T02:03:57;6.22;;;4.07;;
72904;SDS011;61048;52.162;4.516;2023-06-22T02:06:31;7.35;;;3.58;;
72904;SDS011;61048;52.162;4.516;2023-06-22T02:09:04;7.05;;;3.55;;
72904;SDS011;61048;52.162;4.516;2023-06-22T02:11:35;5.93;;;2.90;;
72904;SDS011;61048;52.162;4.516;2023-06-22T02:14:03;6.07;;;3.28;;
72904;SDS011;61048;52.162;4.516;2023-06-22T02:16:31;6.32;;;3.65;;
72904;SDS011;61048;52.162;4.516;2023-06-22T02:19:02;8.30;;;4.00;;
72904;SDS011;61048;52.162;4.516;2023-06-22T02:21:29;5.63;;;3.45;;
72904;SDS011;61048;52.162;4.516;2023-06-22T02:23:56;6.00;;;3.28;;
72904;SDS011;61048;52.162;4.516;2023-06-22T02:26:24;6.50;;;3.85;;
72904;SDS011;61048;52.162;4.516;2023-06-22T02:28:51;6.00;;;3.33;;
72904;SDS011;61048;52.162;4.516;2023-06-22T02:31:19;7.05;;;3.55;;
72904;SDS011;61048;52.162;4.516;2023-06-22T02:33:46;7.22;;;4.07;;
72904;SDS011;61048;52.162;4.516;2023-06-22T02:36:14;8.13;;;4.15;;
72904;SDS011;61048;52.162;4.516;2023-06-22T02:38:42;11.52;;;5.28;;
72904;SDS011;61048;52.162;4.516;2023-06-22T02:41:13;9.50;;;5.13;;
72904;SDS011;61048;52.162;4.516;2023-06-22T02:43:43;7.72;;;4.85;;
72904;SDS011;61048;52.162;4.516;2023-06-22T02:46:11;10.65;;;5.30;;
72904;SDS011;61048;52.162;4.516;2023-06-22T02:48:38;9.52;;;4.75;;
72904;SDS011;61048;52.162;4.516;2023-06-22T02:51:05;10.65;;;5.05;;
72904;SDS011;61048;52.162;4.516;2023-06-22T02:53:34;9.48;;;5.47;;
72904;SDS011;61048;52.162;4.516;2023-06-22T02:56:01;9.57;;;5.00;;
72904;SDS011;61048;52.162;4.516;2023-06-22T02:58:30;8.10;;;4.43;;
72904;SDS011;61048;52.162;4.516;2023-06-22T03:00:58;8.93;;;4.80;;
72904;SDS011;61048;52.162;4.516;2023-06-22T03:03:29;7.18;;;3.95;;
72904;SDS011;61048;52.162;4.516;2023-06-22T03:05:57;7.38;;;3.70;;
72904;SDS011;61048;52.162;4.516;2023-06-22T03:08:26;9.02;;;4.18;;
72904;SDS011;61048;52.162;4.516;2023-06-22T03:10:55;7.32;;;3.88;;
72904;SDS011;61048;52.162;4.516;2023-06-22T03:13:22;6.32;;;3.15;;
72904;SDS011;61048;52.162;4.516;2023-06-22T03:15:49;7.05;;;3.50;;
72904;SDS011;61048;52.162;4.516;2023-06-22T03:18:16;7.00;;;3.83;;
72904;SDS011;61048;52.162;4.516;2023-06-22T03:20:43;7.13;;;3.50;;
72904;SDS011;61048;52.162;4.516;2023-06-22T03:23:10;9.10;;;4.18;;
72904;SDS011;61048;52.162;4.516;2023-06-22T03:25:37;6.53;;;3.80;;
72904;SDS011;61048;52.162;4.516;2023-06-22T03:28:05;7.90;;;4.30;;
72904;SDS011;61048;52.162;4.516;2023-06-22T03:30:32;8.32;;;4.03;;
72904;SDS011;61048;52.162;4.516;2023-06-22T03:32:59;7.22;;;4.55;;
72904;SDS011;61048;52.162;4.516;2023-06-22T03:35:26;7.22;;;4.22;;
72904;SDS011;61048;52.162;4.516;2023-06-22T03:37:53;9.05;;;5.00;;
72904;SDS011;61048;52.162;4.516;2023-06-22T03:40:20;8.75;;;4.78;;
72904;SDS011;61048;52.162;4.516;2023-06-22T03:42:47;9.68;;;4.63;;
72904;SDS011;61048;52.162;4.516;2023-06-22T03:45:15;8.35;;;4.90;;
72904;SDS011;61048;52.162;4.516;2023-06-22T03:47:42;9.75;;;5.32;;
72904;SDS011;61048;52.162;4.516;2023-06-22T03:50:09;10.32;;;4.82;;
72904;SDS011;61048;52.162;4.516;2023-06-22T03:52:36;10.82;;;5.45;;
72904;SDS011;61048;52.162;4.516;2023-06-22T03:55:03;9.93;;;5.80;;
72904;SDS011;61048;52.162;4.516;2023-06-22T03:57:31;9.68;;;5.53;;
72904;SDS011;61048;52.162;4.516;2023-06-22T03:59:58;10.95;;;5.30;;
72904;SDS011;61048;52.162;4.516;2023-06-22T04:02:27;10.25;;;5.68;;
72904;SDS011;61048;52.162;4.516;2023-06-22T04:04:54;12.35;;;5.85;;
72904;SDS011;61048;52.162;4.516;2023-06-22T04:07:21;10.40;;;5.38;;
72904;SDS011;61048;52.162;4.516;2023-06-22T04:09:48;12.45;;;5.78;;
72904;SDS011;61048;52.162;4.516;2023-06-22T04:12:15;10.07;;;5.60;;
72904;SDS011;61048;52.162;4.516;2023-06-22T04:14:42;12.20;;;6.15;;
72904;SDS011;61048;52.162;4.516;2023-06-22T04:17:09;13.30;;;6.78;;
72904;SDS011;61048;52.162;4.516;2023-06-22T04:19:40;12.10;;;6.47;;
72904;SDS011;61048;52.162;4.516;2023-06-22T04:22:07;12.77;;;6.07;;
72904;SDS011;61048;52.162;4.516;2023-06-22T04:24:35;10.52;;;6.38;;
72904;SDS011;61048;52.162;4.516;2023-06-22T04:27:02;10.98;;;6.05;;
72904;SDS011;61048;52.162;4.516;2023-06-22T04:29:29;10.93;;;6.00;;
72904;SDS011;61048;52.162;4.516;2023-06-22T04:31:56;10.55;;;5.38;;
72904;SDS011;61048;52.162;4.516;2023-06-22T04:34:28;9.93;;;5.75;;
72904;SDS011;61048;52.162;4.516;2023-06-22T04:36:56;11.30;;;5.80;;
72904;SDS011;61048;52.162;4.516;2023-06-22T04:39:23;12.80;;;6.15;;
72904;SDS011;61048;52.162;4.516;2023-06-22T04:41:52;13.45;;;6.13;;
72904;SDS011;61048;52.162;4.516;2023-06-22T04:44:20;12.05;;;5.75;;
72904;SDS011;61048;52.162;4.516;2023-06-22T04:46:50;11.35;;;5.68;;
72904;SDS011;61048;52.162;4.516;2023-06-22T04:49:19;11.07;;;5.68;;
72904;SDS011;61048;52.162;4.516;2023-06-22T04:51:47;12.38;;;5.88;;
72904;SDS011;61048;52.162;4.516;2023-06-22T04:54:18;9.55;;;5.28;;
72904;SDS011;61048;52.162;4.516;2023-06-22T04:56:45;11.27;;;5.93;;
72904;SDS011;61048;52.162;4.516;2023-06-22T04:59:13;10.40;;;5.75;;
72904;SDS011;61048;52.162;4.516;2023-06-22T05:01:43;12.75;;;6.82;;
72904;SDS011;61048;52.162;4.516;2023-06-22T05:04:10;14.15;;;7.38;;
72904;SDS011;61048;52.162;4.516;2023-06-22T05:06:37;9.70;;;5.85;;
72904;SDS011;61048;52.162;4.516;2023-06-22T05:09:04;10.43;;;6.18;;
72904;SDS011;61048;52.162;4.516;2023-06-22T05:11:33;12.88;;;6.60;;
72904;SDS011;61048;52.162;4.516;2023-06-22T05:14:00;11.38;;;6.30;;
72904;SDS011;61048;52.162;4.516;2023-06-22T05:16:27;12.07;;;5.93;;
72904;SDS011;61048;52.162;4.516;2023-06-22T05:18:54;10.82;;;5.63;;
72904;SDS011;61048;52.162;4.516;2023-06-22T05:21:22;10.15;;;4.72;;
72904;SDS011;61048;52.162;4.516;2023-06-22T05:23:50;11.05;;;4.93;;
72904;SDS011;61048;52.162;4.516;2023-06-22T05:26:17;11.52;;;5.40;;
72904;SDS011;61048;52.162;4.516;2023-06-22T05:28:46;11.93;;;5.80;;
72904;SDS011;61048;52.162;4.516;2023-06-22T05:31:14;11.68;;;4.57;;
72904;SDS011;61048;52.162;4.516;2023-06-22T05:33:42;10.23;;;4.25;;
72904;SDS011;61048;52.162;4.516;2023-06-22T05:36:10;10.63;;;5.95;;
72904;SDS011;61048;52.162;4.516;2023-06-22T05:38:38;12.80;;;5.32;;
72904;SDS011;61048;52.162;4.516;2023-06-22T05:41:05;9.40;;;4.05;;
72904;SDS011;61048;52.162;4.516;2023-06-22T05:43:32;8.77;;;4.75;;
72904;SDS011;61048;52.162;4.516;2023-06-22T05:46:01;8.77;;;4.47;;
72904;SDS011;61048;52.162;4.516;2023-06-22T05:48:28;11.38;;;5.18;;
72904;SDS011;61048;52.162;4.516;2023-06-22T05:50:56;19.27;;;6.57;;
72904;SDS011;61048;52.162;4.516;2023-06-22T05:53:23;12.52;;;5.68;;
72904;SDS011;61048;52.162;4.516;2023-06-22T05:55:50;18.13;;;5.20;;
72904;SDS011;61048;52.162;4.516;2023-06-22T05:58:17;10.55;;;5.55;;
72904;SDS011;61048;52.162;4.516;2023-06-22T06:00:45;6.85;;;3.13;;
72904;SDS011;61048;52.162;4.516;2023-06-22T06:03:14;9.63;;;5.03;;
72904;SDS011;61048;52.162;4.516;2023-06-22T06:05:42;9.00;;;3.25;;
72904;SDS011;61048;52.162;4.516;2023-06-22T06:08:10;11.73;;;3.90;;
72904;SDS011;61048;52.162;4.516;2023-06-22T06:10:37;16.92;;;3.72;;
72904;SDS011;61048;52.162;4.516;2023-06-22T06:13:05;8.73;;;4.47;;
72904;SDS011;61048;52.162;4.516;2023-06-22T06:15:32;15.40;;;7.57;;
72904;SDS011;61048;52.162;4.516;2023-06-22T06:17:59;14.35;;;7.68;;
72904;SDS011;61048;52.162;4.516;2023-06-22T06:20:29;16.65;;;8.60;;
72904;SDS011;61048;52.162;4.516;2023-06-22T06:22:56;13.20;;;6.80;;
72904;SDS011;61048;52.162;4.516;2023-06-22T06:25:23;12.13;;;6.32;;
72904;SDS011;61048;52.162;4.516;2023-06-22T06:27:53;11.05;;;6.32;;
72904;SDS011;61048;52.162;4.516;2023-06-22T06:30:21;13.07;;;7.20;;
72904;SDS011;61048;52.162;4.516;2023-06-22T06:32:49;12.25;;;6.20;;
72904;SDS011;61048;52.162;4.516;2023-06-22T06:35:16;14.07;;;4.70;;
72904;SDS011;61048;52.162;4.516;2023-06-22T06:37:46;9.57;;;5.20;;
72904;SDS011;61048;52.162;4.516;2023-06-22T06:40:13;8.35;;;4.30;;
72904;SDS011;61048;52.162;4.516;2023-06-22T06:42:41;9.10;;;4.80;;
72904;SDS011;61048;52.162;4.516;2023-06-22T06:45:10;9.25;;;5.30;;
72904;SDS011;61048;52.162;4.516;2023-06-22T06:47:37;13.02;;;5.28;;
72904;SDS011;61048;52.162;4.516;2023-06-22T06:50:05;10.80;;;5.55;;
72904;SDS011;61048;52.162;4.516;2023-06-22T06:52:33;12.20;;;6.25;;
72904;SDS011;61048;52.162;4.516;2023-06-22T06:55:01;10.00;;;5.05;;
72904;SDS011;61048;52.162;4.516;2023-06-22T06:57:29;7.50;;;3.85;;
72904;SDS011;61048;52.162;4.516;2023-06-22T06:59:57;7.82;;;4.10;;
72904;SDS011;61048;52.162;4.516;2023-06-22T07:02:25;9.63;;;4.10;;
72904;SDS011;61048;52.162;4.516;2023-06-22T07:04:54;6.88;;;3.70;;
72904;SDS011;61048;52.162;4.516;2023-06-22T07:07:21;8.20;;;4.22;;
72904;SDS011;61048;52.162;4.516;2023-06-22T07:09:48;8.25;;;4.03;;
72904;SDS011;61048;52.162;4.516;2023-06-22T07:12:17;5.07;;;2.38;;
72904;SDS011;61048;52.162;4.516;2023-06-22T07:14:44;6.07;;;3.03;;
72904;SDS011;61048;52.162;4.516;2023-06-22T07:17:11;5.50;;;2.33;;
72904;SDS011;61048;52.162;4.516;2023-06-22T07:19:38;4.88;;;2.83;;
72904;SDS011;61048;52.162;4.516;2023-06-22T07:22:07;6.50;;;2.30;;
72904;SDS011;61048;52.162;4.516;2023-06-22T07:24:34;6.28;;;2.58;;
72904;SDS011;61048;52.162;4.516;2023-06-22T07:27:02;5.50;;;2.40;;
72904;SDS011;61048;52.162;4.516;2023-06-22T07:29:33;5.22;;;2.50;;
72904;SDS011;61048;52.162;4.516;2023-06-22T07:32:01;5.13;;;2.03;;
72904;SDS011;61048;52.162;4.516;2023-06-22T07:34:30;4.28;;;1.90;;
72904;SDS011;61048;52.162;4.516;2023-06-22T07:36:58;6.15;;;2.28;;
72904;SDS011;61048;52.162;4.516;2023-06-22T07:39:26;4.93;;;2.63;;
72904;SDS011;61048;52.162;4.516;2023-06-22T07:41:53;6.70;;;2.38;;
72904;SDS011;61048;52.162;4.516;2023-06-22T07:44:20;6.53;;;2.30;;
72904;SDS011;61048;52.162;4.516;2023-06-22T07:46:49;6.75;;;2.42;;
72904;SDS011;61048;52.162;4.516;2023-06-22T07:49:16;7.03;;;2.00;;
72904;SDS011;61048;52.162;4.516;2023-06-22T07:51:44;5.47;;;1.80;;
72904;SDS011;61048;52.162;4.516;2023-06-22T07:54:11;4.80;;;2.03;;
72904;SDS011;61048;52.162;4.516;2023-06-22T07:56:40;5.53;;;2.53;;
72904;SDS011;61048;52.162;4.516;2023-06-22T07:59:08;3.97;;;1.52;;
72904;SDS011;61048;52.162;4.516;2023-06-22T08:01:35;4.65;;;1.52;;
72904;SDS011;61048;52.162;4.516;2023-06-22T08:04:04;4.68;;;1.88;;
72904;SDS011;61048;52.162;4.516;2023-06-22T08:06:31;5.15;;;2.15;;
72904;SDS011;61048;52.162;4.516;2023-06-22T08:08:59;5.95;;;2.25;;
72904;SDS011;61048;52.162;4.516;2023-06-22T08:11:26;5.13;;;1.60;;
72904;SDS011;61048;52.162;4.516;2023-06-22T08:13:53;5.43;;;2.13;;
72904;SDS011;61048;52.162;4.516;2023-06-22T08:16:23;5.15;;;1.48;;
72904;SDS011;61048;52.162;4.516;2023-06-22T08:18:50;5.03;;;2.17;;
72904;SDS011;61048;52.162;4.516;2023-06-22T08:21:18;3.65;;;1.80;;
72904;SDS011;61048;52.162;4.516;2023-06-22T08:23:46;4.65;;;2.20;;
72904;SDS011;61048;52.162;4.516;2023-06-22T08:26:14;4.15;;;2.03;;
72904;SDS011;61048;52.162;4.516;2023-06-22T08:28:41;4.28;;;2.38;;
72904;SDS011;61048;52.162;4.516;2023-06-22T08:31:08;5.47;;;1.75;;
72904;SDS011;61048;52.162;4.516;2023-06-22T08:33:39;5.22;;;2.45;;
72904;SDS011;61048;52.162;4.516;2023-06-22T08:36:06;5.10;;;2.58;;
72904;SDS011;61048;52.162;4.516;2023-06-22T08:38:37;5.97;;;2.55;;
72904;SDS011;61048;52.162;4.516;2023-06-22T08:41:04;3.78;;;2.20;;
72904;SDS011;61048;52.162;4.516;2023-06-22T08:43:31;4.85;;;2.00;;
72904;SDS011;61048;52.162;4.516;2023-06-22T08:45:59;5.32;;;1.88;;
72904;SDS011;61048;52.162;4.516;2023-06-22T08:48:27;4.13;;;1.30;;
72904;SDS011;61048;52.162;4.516;2023-06-22T08:50:55;5.22;;;2.00;;
72904;SDS011;61048;52.162;4.516;2023-06-22T08:53:22;7.95;;;2.92;;
72904;SDS011;61048;52.162;4.516;2023-06-22T08:55:50;5.57;;;2.70;;
72904;SDS011;61048;52.162;4.516;2023-06-22T08:58:18;5.85;;;2.55;;
72904;SDS011;61048;52.162;4.516;2023-06-22T09:00:46;6.05;;;2.40;;
72904;SDS011;61048;52.162;4.516;2023-06-22T09:03:13;6.22;;;3.25;;
72904;SDS011;61048;52.162;4.516;2023-06-22T09:05:41;6.30;;;3.70;;
72904;SDS011;61048;52.162;4.516;2023-06-22T09:08:08;5.45;;;2.50;;
72904;SDS011;61048;52.162;4.516;2023-06-22T09:10:36;4.07;;;1.70;;
72904;SDS011;61048;52.162;4.516;2023-06-22T09:13:04;5.53;;;3.13;;
72904;SDS011;61048;52.162;4.516;2023-06-22T09:15:31;8.25;;;4.50;;
72904;SDS011;61048;52.162;4.516;2023-06-22T09:17:59;8.98;;;4.72;;
72904;SDS011;61048;52.162;4.516;2023-06-22T09:20:26;7.13;;;3.97;;
72904;SDS011;61048;52.162;4.516;2023-06-22T09:22:53;5.72;;;3.28;;
72904;SDS011;61048;52.162;4.516;2023-06-22T09:25:21;8.13;;;4.75;;
72904;SDS011;61048;52.162;4.516;2023-06-22T09:27:48;5.88;;;2.70;;
72904;SDS011;61048;52.162;4.516;2023-06-22T09:30:16;5.63;;;2.58;;
72904;SDS011;61048;52.162;4.516;2023-06-22T09:32:43;7.32;;;4.15;;
72904;SDS011;61048;52.162;4.516;2023-06-22T09:35:11;6.32;;;2.50;;
72904;SDS011;61048;52.162;4.516;2023-06-22T09:37:38;9.65;;;4.00;;
72904;SDS011;61048;52.162;4.516;2023-06-22T09:40:06;5.05;;;2.80;;
72904;SDS011;61048;52.162;4.516;2023-06-22T09:42:36;5.13;;;2.10;;
72904;SDS011;61048;52.162;4.516;2023-06-22T09:45:03;4.93;;;2.33;;
72904;SDS011;61048;52.162;4.516;2023-06-22T09:47:32;8.48;;;4.30;;
72904;SDS011;61048;52.162;4.516;2023-06-22T09:49:59;7.00;;;3.85;;
72904;SDS011;61048;52.162;4.516;2023-06-22T09:52:27;4.45;;;2.63;;
72904;SDS011;61048;52.162;4.516;2023-06-22T09:54:54;8.57;;;4.05;;
72904;SDS011;61048;52.162;4.516;2023-06-22T09:57:21;5.85;;;2.45;;
72904;SDS011;61048;52.162;4.516;2023-06-22T09:59:48;5.40;;;2.88;;
72904;SDS011;61048;52.162;4.516;2023-06-22T10:02:16;7.85;;;3.72;;
72904;SDS011;61048;52.162;4.516;2023-06-22T10:04:44;9.07;;;4.03;;
72904;SDS011;61048;52.162;4.516;2023-06-22T10:07:12;5.13;;;2.60;;
72904;SDS011;61048;52.162;4.516;2023-06-22T10:09:39;5.43;;;2.25;;
72904;SDS011;61048;52.162;4.516;2023-06-22T10:12:06;6.93;;;3.40;;
72904;SDS011;61048;52.162;4.516;2023-06-22T10:14:34;8.93;;;4.28;;
72904;SDS011;61048;52.162;4.516;2023-06-22T10:17:01;6.95;;;3.65;;
72904;SDS011;61048;52.162;4.516;2023-06-22T10:19:29;6.40;;;3.00;;
72904;SDS011;61048;52.162;4.516;2023-06-22T10:21:57;6.43;;;3.05;;
72904;SDS011;61048;52.162;4.516;2023-06-22T10:24:24;6.07;;;3.20;;
72904;SDS011;61048;52.162;4.516;2023-06-22T10:26:51;4.68;;;3.42;;
72904;SDS011;61048;52.162;4.516;2023-06-22T10:29:19;6.80;;;4.03;;
72904;SDS011;61048;52.162;4.516;2023-06-22T10:31:47;4.38;;;2.42;;
72904;SDS011;61048;52.162;4.516;2023-06-22T10:34:14;6.38;;;3.65;;
72904;SDS011;61048;52.162;4.516;2023-06-22T10:36:41;5.22;;;2.83;;
72904;SDS011;61048;52.162;4.516;2023-06-22T10:39:12;5.50;;;3.33;;
72904;SDS011;61048;52.162;4.516;2023-06-22T10:41:40;4.40;;;2.47;;
72904;SDS011;61048;52.162;4.516;2023-06-22T10:44:07;9.70;;;4.72;;
72904;SDS011;61048;52.162;4.516;2023-06-22T10:46:34;7.43;;;4.10;;
72904;SDS011;61048;52.162;4.516;2023-06-22T10:49:01;5.72;;;3.28;;
72904;SDS011;61048;52.162;4.516;2023-06-22T10:51:29;8.98;;;3.30;;
72904;SDS011;61048;52.162;4.516;2023-06-22T10:53:56;6.78;;;3.72;;
72904;SDS011;61048;52.162;4.516;2023-06-22T10:56:25;5.10;;;3.22;;
72904;SDS011;61048;52.162;4.516;2023-06-22T10:58:52;6.22;;;3.42;;
72904;SDS011;61048;52.162;4.516;2023-06-22T11:01:20;5.07;;;3.25;;
72904;SDS011;61048;52.162;4.516;2023-06-22T11:03:47;5.63;;;3.03;;
72904;SDS011;61048;52.162;4.516;2023-06-22T11:06:14;6.97;;;3.38;;
72904;SDS011;61048;52.162;4.516;2023-06-22T11:08:43;7.70;;;4.55;;
72904;SDS011;61048;52.162;4.516;2023-06-22T11:11:10;7.50;;;3.65;;
72904;SDS011;61048;52.162;4.516;2023-06-22T11:13:39;6.63;;;3.78;;
72904;SDS011;61048;52.162;4.516;2023-06-22T11:16:06;8.32;;;4.38;;
72904;SDS011;61048;52.162;4.516;2023-06-22T11:18:33;6.65;;;4.20;;
72904;SDS011;61048;52.162;4.516;2023-06-22T11:21:01;8.50;;;4.35;;
72904;SDS011;61048;52.162;4.516;2023-06-22T11:23:28;7.63;;;4.40;;
72904;SDS011;61048;52.162;4.516;2023-06-22T11:25:55;8.70;;;3.88;;
72904;SDS011;61048;52.162;4.516;2023-06-22T11:28:22;7.45;;;4.43;;
72904;SDS011;61048;52.162;4.516;2023-06-22T11:30:51;10.13;;;4.88;;
72904;SDS011;61048;52.162;4.516;2023-06-22T11:33:18;8.15;;;4.60;;
72904;SDS011;61048;52.162;4.516;2023-06-22T11:35:45;8.60;;;4.65;;
72904;SDS011;61048;52.162;4.516;2023-06-22T11:38:12;7.45;;;4.05;;
72904;SDS011;61048;52.162;4.516;2023-06-22T11:40:40;8.23;;;5.20;;
72904;SDS011;61048;52.162;4.516;2023-06-22T11:43:07;6.93;;;4.30;;
72904;SDS011;61048;52.162;4.516;2023-06-22T11:45:34;8.57;;;3.58;;
72904;SDS011;61048;52.162;4.516;2023-06-22T11:48:03;8.02;;;4.70;;
72904;SDS011;61048;52.162;4.516;2023-06-22T11:50:30;7.40;;;3.78;;
72904;SDS011;61048;52.162;4.516;2023-06-22T11:53:01;7.78;;;4.32;;
72904;SDS011;61048;52.162;4.516;2023-06-22T11:55:28;7.65;;;4.43;;
72904;SDS011;61048;52.162;4.516;2023-06-22T11:57:56;13.55;;;5.57;;
72904;SDS011;61048;52.162;4.516;2023-06-22T12:00:28;8.95;;;4.40;;
72904;SDS011;61048;52.162;4.516;2023-06-22T12:02:55;8.63;;;4.35;;
72904;SDS011;61048;52.162;4.516;2023-06-22T12:05:24;6.93;;;4.03;;
72904;SDS011;61048;52.162;4.516;2023-06-22T12:07:53;9.13;;;4.93;;
72904;SDS011;61048;52.162;4.516;2023-06-22T12:10:20;7.72;;;4.38;;
72904;SDS011;61048;52.162;4.516;2023-06-22T12:12:47;7.95;;;4.57;;
72904;SDS011;61048;52.162;4.516;2023-06-22T12:15:15;7.35;;;4.45;;
72904;SDS011;61048;52.162;4.516;2023-06-22T12:17:42;8.63;;;4.70;;
72904;SDS011;61048;52.162;4.516;2023-06-22T12:20:09;7.43;;;4.25;;
72904;SDS011;61048;52.162;4.516;2023-06-22T12:22:38;8.98;;;5.40;;
72904;SDS011;61048;52.162;4.516;2023-06-22T12:25:06;8.70;;;4.72;;
72904;SDS011;61048;52.162;4.516;2023-06-22T12:27:33;10.63;;;5.47;;
72904;SDS011;61048;52.162;4.516;2023-06-22T12:30:01;10.73;;;6.47;;
72904;SDS011;61048;52.162;4.516;2023-06-22T12:32:28;10.20;;;5.28;;
72904;SDS011;61048;52.162;4.516;2023-06-22T12:34:55;11.95;;;5.93;;
72904;SDS011;61048;52.162;4.516;2023-06-22T12:37:22;11.02;;;6.95;;
72904;SDS011;61048;52.162;4.516;2023-06-22T12:39:51;10.00;;;5.90;;
72904;SDS011;61048;52.162;4.516;2023-06-22T12:42:18;11.93;;;5.57;;
72904;SDS011;61048;52.162;4.516;2023-06-22T12:44:46;12.05;;;6.82;;
72904;SDS011;61048;52.162;4.516;2023-06-22T12:47:13;12.82;;;6.30;;
72904;SDS011;61048;52.162;4.516;2023-06-22T12:49:40;9.43;;;5.43;;
72904;SDS011;61048;52.162;4.516;2023-06-22T12:52:10;8.95;;;5.03;;
72904;SDS011;61048;52.162;4.516;2023-06-22T12:54:38;9.98;;;5.40;;
72904;SDS011;61048;52.162;4.516;2023-06-22T12:57:06;12.35;;;5.38;;
72904;SDS011;61048;52.162;4.516;2023-06-22T12:59:34;8.23;;;5.18;;
72904;SDS011;61048;52.162;4.516;2023-06-22T13:02:01;9.75;;;5.22;;
72904;SDS011;61048;52.162;4.516;2023-06-22T13:04:28;11.35;;;5.93;;
72904;SDS011;61048;52.162;4.516;2023-06-22T13:06:55;11.15;;;5.65;;
72904;SDS011;61048;52.162;4.516;2023-06-22T13:09:22;9.25;;;4.88;;
72904;SDS011;61048;52.162;4.516;2023-06-22T13:11:49;8.77;;;5.22;;
72904;SDS011;61048;52.162;4.516;2023-06-22T13:14:18;9.95;;;6.25;;
72904;SDS011;61048;52.162;4.516;2023-06-22T13:16:46;12.10;;;5.95;;
72904;SDS011;61048;52.162;4.516;2023-06-22T13:19:13;8.65;;;4.95;;
72904;SDS011;61048;52.162;4.516;2023-06-22T13:21:40;8.88;;;4.85;;
72904;SDS011;61048;52.162;4.516;2023-06-22T13:24:07;9.77;;;6.68;;
72904;SDS011;61048;52.162;4.516;2023-06-22T13:26:34;9.10;;;5.30;;
72904;SDS011;61048;52.162;4.516;2023-06-22T13:29:02;11.98;;;6.15;;
72904;SDS011;61048;52.162;4.516;2023-06-22T13:31:30;9.23;;;5.25;;
72904;SDS011;61048;52.162;4.516;2023-06-22T13:33:57;12.15;;;7.50;;
72904;SDS011;61048;52.162;4.516;2023-06-22T13:36:25;10.13;;;5.60;;
72904;SDS011;61048;52.162;4.516;2023-06-22T13:38:55;12.80;;;6.60;;
72904;SDS011;61048;52.162;4.516;2023-06-22T13:41:23;8.85;;;5.60;;
72904;SDS011;61048;52.162;4.516;2023-06-22T13:43:50;8.80;;;5.72;;
72904;SDS011;61048;52.162;4.516;2023-06-22T13:46:18;10.00;;;5.80;;
72904;SDS011;61048;52.162;4.516;2023-06-22T13:48:46;10.85;;;5.75;;
72904;SDS011;61048;52.162;4.516;2023-06-22T13:51:13;9.90;;;5.55;;
72904;SDS011;61048;52.162;4.516;2023-06-22T13:53:41;6.50;;;4.68;;
72904;SDS011;61048;52.162;4.516;2023-06-22T13:56:08;10.02;;;4.80;;
72904;SDS011;61048;52.162;4.516;2023-06-22T13:58:35;8.60;;;4.40;;
72904;SDS011;61048;52.162;4.516;2023-06-22T14:01:02;7.95;;;4.63;;
72904;SDS011;61048;52.162;4.516;2023-06-22T14:03:29;9.07;;;4.95;;
72904;SDS011;61048;52.162;4.516;2023-06-22T14:05:58;9.18;;;4.82;;
72904;SDS011;61048;52.162;4.516;2023-06-22T14:08:25;9.82;;;4.88;;
72904;SDS011;61048;52.162;4.516;2023-06-22T14:10:52;8.70;;;5.15;;
72904;SDS011;61048;52.162;4.516;2023-06-22T14:13:19;8.73;;;5.55;;
72904;SDS011;61048;52.162;4.516;2023-06-22T14:15:47;8.70;;;4.68;;
72904;SDS011;61048;52.162;4.516;2023-06-22T14:18:16;9.07;;;4.65;;
72904;SDS011;61048;52.162;4.516;2023-06-22T14:20:44;6.82;;;3.35;;
72904;SDS011;61048;52.162;4.516;2023-06-22T14:23:14;5.93;;;3.70;;
72904;SDS011;61048;52.162;4.516;2023-06-22T14:25:41;9.45;;;4.75;;
72904;SDS011;61048;52.162;4.516;2023-06-22T14:28:08;7.50;;;4.57;;
72904;SDS011;61048;52.162;4.516;2023-06-22T14:30:35;6.45;;;3.95;;
72904;SDS011;61048;52.162;4.516;2023-06-22T14:33:03;6.95;;;4.05;;
72904;SDS011;61048;52.162;4.516;2023-06-22T14:35:30;7.95;;;4.63;;
72904;SDS011;61048;52.162;4.516;2023-06-22T14:37:57;8.63;;;4.45;;
72904;SDS011;61048;52.162;4.516;2023-06-22T14:40:25;8.77;;;4.75;;
72904;SDS011;61048;52.162;4.516;2023-06-22T14:42:53;8.18;;;4.35;;
72904;SDS011;61048;52.162;4.516;2023-06-22T14:45:21;6.30;;;3.47;;
72904;SDS011;61048;52.162;4.516;2023-06-22T14:47:48;7.97;;;4.15;;
72904;SDS011;61048;52.162;4.516;2023-06-22T14:50:16;6.53;;;4.50;;